sensor_id;sensor_type;location;lat;lon;timestamp;P1;durP1;ratioP1;P2;durP2;ratioP2
9938;SDS011;5008;50.656;7.188;2023-06-10T03:41:23;8.32;;;7.63;;
9938;SDS011;5008;50.656;7.188;2023-06-10T03:43:57;8.63;;;7.93;;
9938;SDS011;5008;50.656;7.188;2023-06-10T03:49:26;8.93;;;8.23;;
9938;SDS011;5008;50.656;7.188;2023-06-10T03:51:54;8.15;;;7.53;;
9938;SDS011;5008;50.656;7.188;2023-06-10T03:54:21;9.85;;;8.60;;
9938;SDS011;5008;50.656;7.188;2023-06-10T03:59:19;7.72;;;7.13;;
9938;SDS011;5008;50.656;7.188;2023-06-10T04:01:46;8.90;;;8.20;;
9938;SDS011;5008;50.656;7.188;2023-06-10T04:04:13;8.63;;;7.72;;
9938;SDS011;5008;50.656;7.188;2023-06-10T04:06:41;9.05;;;8.18;;
9938;SDS011;5008;50.656;7.188;2023-06-10T04:09:12;8.50;;;7.72;;
9938;SDS011;5008;50.656;7.188;2023-06-10T04:11:39;8.63;;;7.93;;
9938;SDS011;5008;50.656;7.188;2023-06-10T04:14:08;8.93;;;8.20;;
9938;SDS011;5008;50.656;7.188;2023-06-10T04:16:34;8.85;;;8.05;;
9938;SDS011;5008;50.656;7.188;2023-06-10T04:19:04;8.27;;;7.57;;
9938;SDS011;5008;50.656;7.188;2023-06-10T04:21:31;8.65;;;7.95;;
9938;SDS011;5008;50.656;7.188;2023-06-10T04:23:58;8.85;;;8.15;;
9938;SDS011;5008;50.656;7.188;2023-06-10T04:26:25;8.82;;;8.02;;
9938;SDS011;5008;50.656;7.188;2023-06-10T04:28:52;8.30;;;7.60;;
9938;SDS011;5008;50.656;7.188;2023-06-10T04:31:21;9.18;;;8.43;;
9938;SDS011;5008;50.656;7.188;2023-06-10T04:33:47;8.77;;;8.02;;
9938;SDS011;5008;50.656;7.188;2023-06-10T04:36:14;8.75;;;7.93;;
9938;SDS011;5008;50.656;7.188;2023-06-10T04:38:41;7.82;;;7.22;;
9938;SDS011;5008;50.656;7.188;2023-06-10T04:41:08;9.15;;;8.35;;
9938;SDS011;5008;50.656;7.188;2023-06-10T04:43:35;8.80;;;8.00;;
9938;SDS011;5008;50.656;7.188;2023-06-10T04:46:02;8.30;;;7.65;;
9938;SDS011;5008;50.656;7.188;2023-06-10T04:48:31;8.77;;;8.00;;
9938;SDS011;5008;50.656;7.188;2023-06-10T04:51:06;8.82;;;8.02;;
9938;SDS011;5008;50.656;7.188;2023-06-10T04:53:33;8.15;;;7.40;;
9938;SDS011;5008;50.656;7.188;2023-06-10T04:56:00;9.48;;;8.75;;
9938;SDS011;5008;50.656;7.188;2023-06-10T04:58:27;9.10;;;8.23;;
9938;SDS011;5008;50.656;7.188;2023-06-10T05:00:55;8.02;;;7.43;;
9938;SDS011;5008;50.656;7.188;2023-06-10T05:03:22;8.43;;;7.57;;
9938;SDS011;5008;50.656;7.188;2023-06-10T05:05:50;9.00;;;7.63;;
9938;SDS011;5008;50.656;7.188;2023-06-10T05:08:17;9.23;;;8.40;;
9938;SDS011;5008;50.656;7.188;2023-06-10T05:10:44;7.85;;;7.25;;
9938;SDS011;5008;50.656;7.188;2023-06-10T05:13:12;8.60;;;7.90;;
9938;SDS011;5008;50.656;7.188;2023-06-10T05:15:43;8.45;;;7.75;;
9938;SDS011;5008;50.656;7.188;2023-06-10T05:18:12;9.13;;;8.43;;
9938;SDS011;5008;50.656;7.188;2023-06-10T05:20:39;8.38;;;7.65;;
9938;SDS011;5008;50.656;7.188;2023-06-10T05:23:12;8.50;;;7.82;;
9938;SDS011;5008;50.656;7.188;2023-06-10T05:25:41;8.45;;;7.75;;
9938;SDS011;5008;50.656;7.188;2023-06-10T05:28:08;8.82;;;7.97;;
9938;SDS011;5008;50.656;7.188;2023-06-10T05:30:36;8.27;;;7.60;;
9938;SDS011;5008;50.656;7.188;2023-06-10T05:33:03;8.02;;;7.30;;
9938;SDS011;5008;50.656;7.188;2023-06-10T05:35:38;8.43;;;7.63;;
9938;SDS011;5008;50.656;7.188;2023-06-10T05:38:08;9.57;;;8.73;;
9938;SDS011;5008;50.656;7.188;2023-06-10T05:40:42;9.00;;;8.20;;
9938;SDS011;5008;50.656;7.188;2023-06-10T05:43:15;9.23;;;8.32;;
9938;SDS011;5008;50.656;7.188;2023-06-10T05:45:43;9.30;;;8.50;;
9938;SDS011;5008;50.656;7.188;2023-06-10T05:48:11;9.05;;;8.15;;
9938;SDS011;5008;50.656;7.188;2023-06-10T05:50:42;9.73;;;8.82;;
9938;SDS011;5008;50.656;7.188;2023-06-10T05:53:13;8.90;;;8.20;;
9938;SDS011;5008;50.656;7.188;2023-06-10T05:55:45;9.20;;;8.50;;
9938;SDS011;5008;50.656;7.188;2023-06-10T05:58:13;8.60;;;7.90;;
9938;SDS011;5008;50.656;7.188;2023-06-10T06:00:42;9.27;;;8.48;;
9938;SDS011;5008;50.656;7.188;2023-06-10T06:03:15;10.15;;;9.13;;
9938;SDS011;5008;50.656;7.188;2023-06-10T06:05:50;9.35;;;8.45;;
9938;SDS011;5008;50.656;7.188;2023-06-10T06:08:28;9.68;;;8.75;;
9938;SDS011;5008;50.656;7.188;2023-06-10T06:11:00;9.32;;;8.63;;
9938;SDS011;5008;50.656;7.188;2023-06-10T06:13:28;9.95;;;9.05;;
9938;SDS011;5008;50.656;7.188;2023-06-10T06:15:59;7.65;;;7.00;;
9938;SDS011;5008;50.656;7.188;2023-06-10T06:18:25;9.38;;;8.57;;
9938;SDS011;5008;50.656;7.188;2023-06-10T06:20:52;9.77;;;9.05;;
9938;SDS011;5008;50.656;7.188;2023-06-10T06:23:19;9.68;;;8.88;;
9938;SDS011;5008;50.656;7.188;2023-06-10T06:25:46;10.02;;;8.73;;
9938;SDS011;5008;50.656;7.188;2023-06-10T06:28:15;9.77;;;8.90;;
9938;SDS011;5008;50.656;7.188;2023-06-10T06:30:43;9.38;;;8.68;;
9938;SDS011;5008;50.656;7.188;2023-06-10T06:33:10;9.02;;;8.13;;
9938;SDS011;5008;50.656;7.188;2023-06-10T06:35:38;8.57;;;7.88;;
9938;SDS011;5008;50.656;7.188;2023-06-10T06:38:05;8.80;;;8.00;;
9938;SDS011;5008;50.656;7.188;2023-06-10T06:40:35;8.23;;;7.65;;
9938;SDS011;5008;50.656;7.188;2023-06-10T06:43:04;8.55;;;7.90;;
9938;SDS011;5008;50.656;7.188;2023-06-10T06:45:33;8.45;;;7.72;;
9938;SDS011;5008;50.656;7.188;2023-06-10T06:48:00;7.78;;;7.18;;
9938;SDS011;5008;50.656;7.188;2023-06-10T06:50:27;8.13;;;7.43;;
9938;SDS011;5008;50.656;7.188;2023-06-10T06:52:54;8.15;;;7.45;;
9938;SDS011;5008;50.656;7.188;2023-06-10T06:55:21;7.97;;;7.28;;
9938;SDS011;5008;50.656;7.188;2023-06-10T06:57:48;5.82;;;5.43;;
9938;SDS011;5008;50.656;7.188;2023-06-10T07:00:15;6.15;;;5.65;;
9938;SDS011;5008;50.656;7.188;2023-06-10T07:02:44;6.15;;;5.55;;
9938;SDS011;5008;50.656;7.188;2023-06-10T07:05:12;6.90;;;6.20;;
9938;SDS011;5008;50.656;7.188;2023-06-10T07:07:39;6.20;;;5.70;;
9938;SDS011;5008;50.656;7.188;2023-06-10T07:10:06;7.00;;;6.40;;
9938;SDS011;5008;50.656;7.188;2023-06-10T07:12:36;7.60;;;6.40;;
9938;SDS011;5008;50.656;7.188;2023-06-10T07:15:03;7.03;;;6.15;;
9938;SDS011;5008;50.656;7.188;2023-06-10T07:17:30;6.78;;;6.28;;
9938;SDS011;5008;50.656;7.188;2023-06-10T07:19:58;6.55;;;5.95;;
9938;SDS011;5008;50.656;7.188;2023-06-10T07:22:25;6.22;;;5.70;;
9938;SDS011;5008;50.656;7.188;2023-06-10T07:24:52;5.78;;;5.38;;
9938;SDS011;5008;50.656;7.188;2023-06-10T07:27:20;5.22;;;4.82;;
9938;SDS011;5008;50.656;7.188;2023-06-10T07:29:47;6.70;;;6.20;;
9938;SDS011;5008;50.656;7.188;2023-06-10T07:32:14;6.30;;;5.80;;
9938;SDS011;5008;50.656;7.188;2023-06-10T07:34:40;6.47;;;5.97;;
9938;SDS011;5008;50.656;7.188;2023-06-10T07:39:51;7.13;;;6.43;;
9938;SDS011;5008;50.656;7.188;2023-06-10T07:42:18;7.55;;;6.13;;
9938;SDS011;5008;50.656;7.188;2023-06-10T07:44:46;6.78;;;6.18;;
9938;SDS011;5008;50.656;7.188;2023-06-10T07:47:14;6.07;;;5.68;;
9938;SDS011;5008;50.656;7.188;2023-06-10T07:49:42;6.18;;;5.68;;
9938;SDS011;5008;50.656;7.188;2023-06-10T07:52:09;6.15;;;5.65;;
9938;SDS011;5008;50.656;7.188;2023-06-10T07:54:40;7.05;;;6.55;;
9938;SDS011;5008;50.656;7.188;2023-06-10T07:57:18;6.88;;;6.28;;
9938;SDS011;5008;50.656;7.188;2023-06-10T07:59:45;6.93;;;6.25;;
9938;SDS011;5008;50.656;7.188;2023-06-10T08:02:12;5.53;;;5.13;;
9938;SDS011;5008;50.656;7.188;2023-06-10T08:04:40;5.97;;;5.47;;
9938;SDS011;5008;50.656;7.188;2023-06-10T08:07:07;7.00;;;5.57;;
9938;SDS011;5008;50.656;7.188;2023-06-10T08:09:35;5.50;;;5.00;;
9938;SDS011;5008;50.656;7.188;2023-06-10T08:12:04;6.60;;;6.00;;
9938;SDS011;5008;50.656;7.188;2023-06-10T08:14:31;7.22;;;6.50;;
9938;SDS011;5008;50.656;7.188;2023-06-10T08:16:59;6.70;;;6.20;;
9938;SDS011;5008;50.656;7.188;2023-06-10T08:19:25;6.90;;;6.30;;
9938;SDS011;5008;50.656;7.188;2023-06-10T08:21:52;6.18;;;5.57;;
9938;SDS011;5008;50.656;7.188;2023-06-10T08:24:19;5.90;;;5.38;;
9938;SDS011;5008;50.656;7.188;2023-06-10T08:26:46;5.05;;;4.65;;
9938;SDS011;5008;50.656;7.188;2023-06-10T08:29:15;5.88;;;5.38;;
9938;SDS011;5008;50.656;7.188;2023-06-10T08:31:44;6.57;;;6.00;;
9938;SDS011;5008;50.656;7.188;2023-06-10T08:34:11;5.38;;;4.93;;
9938;SDS011;5008;50.656;7.188;2023-06-10T08:36:40;6.40;;;5.90;;
9938;SDS011;5008;50.656;7.188;2023-06-10T08:39:07;6.90;;;6.30;;
9938;SDS011;5008;50.656;7.188;2023-06-10T08:41:35;5.60;;;5.20;;
9938;SDS011;5008;50.656;7.188;2023-06-10T08:44:12;7.15;;;6.57;;
9938;SDS011;5008;50.656;7.188;2023-06-10T08:46:47;5.50;;;5.05;;
9938;SDS011;5008;50.656;7.188;2023-06-10T08:49:17;6.57;;;6.07;;
9938;SDS011;5008;50.656;7.188;2023-06-10T08:51:47;6.82;;;6.32;;
9938;SDS011;5008;50.656;7.188;2023-06-10T08:54:26;7.03;;;6.10;;
9938;SDS011;5008;50.656;7.188;2023-06-10T08:56:56;7.32;;;6.72;;
9938;SDS011;5008;50.656;7.188;2023-06-10T08:59:26;7.35;;;6.47;;
9938;SDS011;5008;50.656;7.188;2023-06-10T09:01:53;6.60;;;6.10;;
9938;SDS011;5008;50.656;7.188;2023-06-10T09:04:21;6.65;;;6.00;;
9938;SDS011;5008;50.656;7.188;2023-06-10T09:06:50;6.22;;;5.72;;
9938;SDS011;5008;50.656;7.188;2023-06-10T09:09:18;5.90;;;5.40;;
9938;SDS011;5008;50.656;7.188;2023-06-10T09:11:48;5.63;;;5.13;;
9938;SDS011;5008;50.656;7.188;2023-06-10T09:14:15;6.50;;;6.00;;
9938;SDS011;5008;50.656;7.188;2023-06-10T09:16:43;6.97;;;6.47;;
9938;SDS011;5008;50.656;7.188;2023-06-10T09:19:11;6.65;;;6.15;;
9938;SDS011;5008;50.656;7.188;2023-06-10T09:21:39;6.45;;;5.95;;
9938;SDS011;5008;50.656;7.188;2023-06-10T09:24:06;6.30;;;5.70;;
9938;SDS011;5008;50.656;7.188;2023-06-10T09:26:33;6.28;;;5.85;;
9938;SDS011;5008;50.656;7.188;2023-06-10T09:29:02;5.93;;;5.53;;
9938;SDS011;5008;50.656;7.188;2023-06-10T09:31:31;4.60;;;4.30;;
9938;SDS011;5008;50.656;7.188;2023-06-10T09:34:06;6.03;;;5.57;;
9938;SDS011;5008;50.656;7.188;2023-06-10T09:36:33;5.93;;;5.53;;
9938;SDS011;5008;50.656;7.188;2023-06-10T09:39:01;5.75;;;5.25;;
9938;SDS011;5008;50.656;7.188;2023-06-10T09:41:32;6.70;;;6.20;;
9938;SDS011;5008;50.656;7.188;2023-06-10T09:43:59;6.53;;;5.93;;
9938;SDS011;5008;50.656;7.188;2023-06-10T09:46:30;6.68;;;6.07;;
9938;SDS011;5008;50.656;7.188;2023-06-10T09:48:57;5.88;;;5.40;;
9938;SDS011;5008;50.656;7.188;2023-06-10T09:51:26;6.43;;;5.93;;
9938;SDS011;5008;50.656;7.188;2023-06-10T09:53:53;7.88;;;6.50;;
9938;SDS011;5008;50.656;7.188;2023-06-10T09:56:21;7.40;;;6.80;;
9938;SDS011;5008;50.656;7.188;2023-06-10T09:58:58;6.55;;;6.05;;
9938;SDS011;5008;50.656;7.188;2023-06-10T10:01:25;7.03;;;6.35;;
9938;SDS011;5008;50.656;7.188;2023-06-10T10:03:52;6.38;;;5.88;;
9938;SDS011;5008;50.656;7.188;2023-06-10T10:06:19;5.72;;;5.32;;
9938;SDS011;5008;50.656;7.188;2023-06-10T10:08:48;6.68;;;5.15;;
9938;SDS011;5008;50.656;7.188;2023-06-10T10:11:17;5.70;;;5.20;;
9938;SDS011;5008;50.656;7.188;2023-06-10T10:13:46;6.30;;;5.70;;
9938;SDS011;5008;50.656;7.188;2023-06-10T10:16:15;5.65;;;5.25;;
9938;SDS011;5008;50.656;7.188;2023-06-10T10:18:46;6.93;;;6.30;;
9938;SDS011;5008;50.656;7.188;2023-06-10T10:21:17;6.40;;;5.75;;
9938;SDS011;5008;50.656;7.188;2023-06-10T10:23:52;4.97;;;4.55;;
9938;SDS011;5008;50.656;7.188;2023-06-10T10:26:23;5.18;;;4.70;;
9938;SDS011;5008;50.656;7.188;2023-06-10T10:28:58;5.35;;;4.95;;
9938;SDS011;5008;50.656;7.188;2023-06-10T10:31:32;4.63;;;4.28;;
9938;SDS011;5008;50.656;7.188;2023-06-10T10:34:02;5.55;;;5.15;;
9938;SDS011;5008;50.656;7.188;2023-06-10T10:36:32;5.03;;;4.63;;
9938;SDS011;5008;50.656;7.188;2023-06-10T10:39:02;4.70;;;4.40;;
9938;SDS011;5008;50.656;7.188;2023-06-10T10:41:30;5.00;;;4.60;;
9938;SDS011;5008;50.656;7.188;2023-06-10T10:43:58;4.78;;;4.45;;
9938;SDS011;5008;50.656;7.188;2023-06-10T10:46:26;6.35;;;5.05;;
9938;SDS011;5008;50.656;7.188;2023-06-10T10:48:53;5.70;;;5.22;;
9938;SDS011;5008;50.656;7.188;2023-06-10T10:51:22;5.75;;;5.25;;
9938;SDS011;5008;50.656;7.188;2023-06-10T10:59:43;5.45;;;5.05;;
9938;SDS011;5008;50.656;7.188;2023-06-10T11:02:39;5.63;;;5.22;;
9938;SDS011;5008;50.656;7.188;2023-06-10T11:05:08;6.90;;;4.97;;
9938;SDS011;5008;50.656;7.188;2023-06-10T11:07:36;5.90;;;5.40;;
9938;SDS011;5008;50.656;7.188;2023-06-10T11:10:07;6.13;;;5.63;;
9938;SDS011;5008;50.656;7.188;2023-06-10T11:12:42;5.90;;;5.50;;
9938;SDS011;5008;50.656;7.188;2023-06-10T11:15:20;5.38;;;4.88;;
9938;SDS011;5008;50.656;7.188;2023-06-10T11:23:35;5.80;;;5.35;;
9938;SDS011;5008;50.656;7.188;2023-06-10T11:26:29;5.47;;;4.97;;
9938;SDS011;5008;50.656;7.188;2023-06-10T11:29:06;5.32;;;4.93;;
9938;SDS011;5008;50.656;7.188;2023-06-10T11:31:38;5.50;;;5.10;;
9938;SDS011;5008;50.656;7.188;2023-06-10T11:34:09;5.30;;;4.90;;
9938;SDS011;5008;50.656;7.188;2023-06-10T11:36:37;4.97;;;4.38;;
9938;SDS011;5008;50.656;7.188;2023-06-10T11:39:07;5.60;;;4.72;;
9938;SDS011;5008;50.656;7.188;2023-06-10T11:41:37;4.20;;;3.90;;
9938;SDS011;5008;50.656;7.188;2023-06-10T11:44:07;5.28;;;4.43;;
9938;SDS011;5008;50.656;7.188;2023-06-10T11:46:35;4.85;;;4.45;;
9938;SDS011;5008;50.656;7.188;2023-06-10T11:49:03;4.20;;;3.90;;
9938;SDS011;5008;50.656;7.188;2023-06-10T11:51:32;4.43;;;4.13;;
9938;SDS011;5008;50.656;7.188;2023-06-10T11:54:02;5.22;;;4.82;;
9938;SDS011;5008;50.656;7.188;2023-06-10T11:56:30;4.80;;;4.50;;
9938;SDS011;5008;50.656;7.188;2023-06-10T11:58:59;4.72;;;4.32;;
9938;SDS011;5008;50.656;7.188;2023-06-10T12:01:29;5.30;;;4.30;;
9938;SDS011;5008;50.656;7.188;2023-06-10T12:03:58;4.70;;;4.30;;
9938;SDS011;5008;50.656;7.188;2023-06-10T12:06:26;4.82;;;4.38;;
9938;SDS011;5008;50.656;7.188;2023-06-10T12:08:53;4.32;;;4.03;;
9938;SDS011;5008;50.656;7.188;2023-06-10T12:11:21;4.30;;;4.00;;
9938;SDS011;5008;50.656;7.188;2023-06-10T12:13:48;4.32;;;4.03;;
9938;SDS011;5008;50.656;7.188;2023-06-10T12:16:19;5.05;;;4.53;;
9938;SDS011;5008;50.656;7.188;2023-06-10T12:18:46;4.55;;;4.10;;
9938;SDS011;5008;50.656;7.188;2023-06-10T12:21:17;4.88;;;4.43;;
9938;SDS011;5008;50.656;7.188;2023-06-10T12:24:02;4.65;;;4.25;;
9938;SDS011;5008;50.656;7.188;2023-06-10T12:26:38;5.50;;;4.70;;
9938;SDS011;5008;50.656;7.188;2023-06-10T12:29:16;4.65;;;4.25;;
9938;SDS011;5008;50.656;7.188;2023-06-10T12:31:59;4.50;;;4.20;;
9938;SDS011;5008;50.656;7.188;2023-06-10T12:34:32;4.68;;;4.30;;
9938;SDS011;5008;50.656;7.188;2023-06-10T12:37:00;4.40;;;4.00;;
9938;SDS011;5008;50.656;7.188;2023-06-10T12:39:28;4.57;;;4.18;;
9938;SDS011;5008;50.656;7.188;2023-06-10T12:41:55;4.00;;;3.70;;
9938;SDS011;5008;50.656;7.188;2023-06-10T12:44:28;5.15;;;3.55;;
9938;SDS011;5008;50.656;7.188;2023-06-10T12:46:56;4.43;;;4.03;;
9938;SDS011;5008;50.656;7.188;2023-06-10T12:49:24;4.40;;;4.00;;
9938;SDS011;5008;50.656;7.188;2023-06-10T12:51:52;4.32;;;4.03;;
9938;SDS011;5008;50.656;7.188;2023-06-10T12:54:20;3.97;;;3.63;;
9938;SDS011;5008;50.656;7.188;2023-06-10T12:56:48;3.97;;;3.58;;
9938;SDS011;5008;50.656;7.188;2023-06-10T12:59:25;4.50;;;4.10;;
9938;SDS011;5008;50.656;7.188;2023-06-10T13:01:52;4.63;;;4.25;;
9938;SDS011;5008;50.656;7.188;2023-06-10T13:04:20;5.80;;;3.80;;
9938;SDS011;5008;50.656;7.188;2023-06-10T13:06:49;4.20;;;3.90;;
9938;SDS011;5008;50.656;7.188;2023-06-10T13:09:18;3.92;;;3.63;;
9938;SDS011;5008;50.656;7.188;2023-06-10T13:11:45;3.97;;;3.67;;
9938;SDS011;5008;50.656;7.188;2023-06-10T13:14:12;4.05;;;3.70;;
9938;SDS011;5008;50.656;7.188;2023-06-10T13:16:38;3.95;;;3.65;;
9938;SDS011;5008;50.656;7.188;2023-06-10T13:19:05;4.22;;;3.92;;
9938;SDS011;5008;50.656;7.188;2023-06-10T13:21:33;5.32;;;3.75;;
9938;SDS011;5008;50.656;7.188;2023-06-10T13:24:01;6.85;;;4.25;;
9938;SDS011;5008;50.656;7.188;2023-06-10T13:29:14;4.10;;;3.80;;
9938;SDS011;5008;50.656;7.188;2023-06-10T13:31:41;4.18;;;3.88;;
9938;SDS011;5008;50.656;7.188;2023-06-10T13:34:08;5.10;;;4.10;;
9938;SDS011;5008;50.656;7.188;2023-06-10T13:36:35;3.83;;;3.60;;
9938;SDS011;5008;50.656;7.188;2023-06-10T13:39:03;4.25;;;3.85;;
9938;SDS011;5008;50.656;7.188;2023-06-10T13:41:30;3.70;;;3.45;;
9938;SDS011;5008;50.656;7.188;2023-06-10T13:43:57;3.42;;;3.22;;
9938;SDS011;5008;50.656;7.188;2023-06-10T13:46:24;5.40;;;4.15;;
9938;SDS011;5008;50.656;7.188;2023-06-10T13:48:51;3.63;;;3.33;;
9938;SDS011;5008;50.656;7.188;2023-06-10T13:51:18;4.03;;;3.72;;
9938;SDS011;5008;50.656;7.188;2023-06-10T13:53:45;6.22;;;3.67;;
9938;SDS011;5008;50.656;7.188;2023-06-10T13:56:13;3.80;;;3.53;;
9938;SDS011;5008;50.656;7.188;2023-06-10T13:58:40;3.80;;;3.50;;
9938;SDS011;5008;50.656;7.188;2023-06-10T14:01:08;3.83;;;3.60;;
9938;SDS011;5008;50.656;7.188;2023-06-10T14:03:34;4.55;;;3.50;;
9938;SDS011;5008;50.656;7.188;2023-06-10T14:06:01;3.78;;;3.50;;
9938;SDS011;5008;50.656;7.188;2023-06-10T14:08:29;4.00;;;3.70;;
9938;SDS011;5008;50.656;7.188;2023-06-10T14:10:55;4.05;;;3.75;;
9938;SDS011;5008;50.656;7.188;2023-06-10T14:13:24;4.43;;;4.07;;
9938;SDS011;5008;50.656;7.188;2023-06-10T14:15:51;4.32;;;4.03;;
9938;SDS011;5008;50.656;7.188;2023-06-10T14:18:18;3.97;;;3.67;;
9938;SDS011;5008;50.656;7.188;2023-06-10T14:20:45;4.00;;;3.70;;
9938;SDS011;5008;50.656;7.188;2023-06-10T14:23:12;4.05;;;3.75;;
9938;SDS011;5008;50.656;7.188;2023-06-10T14:25:38;4.25;;;3.95;;
9938;SDS011;5008;50.656;7.188;2023-06-10T14:28:05;4.30;;;4.00;;
9938;SDS011;5008;50.656;7.188;2023-06-10T14:30:34;5.05;;;3.72;;
9938;SDS011;5008;50.656;7.188;2023-06-10T14:33:01;5.72;;;4.57;;
9938;SDS011;5008;50.656;7.188;2023-06-10T14:35:27;3.83;;;3.53;;
9938;SDS011;5008;50.656;7.188;2023-06-10T14:37:54;4.53;;;4.13;;
9938;SDS011;5008;50.656;7.188;2023-06-10T14:40:21;4.78;;;4.20;;
9938;SDS011;5008;50.656;7.188;2023-06-10T14:42:49;4.47;;;4.18;;
9938;SDS011;5008;50.656;7.188;2023-06-10T14:45:19;3.92;;;3.55;;
9938;SDS011;5008;50.656;7.188;2023-06-10T14:47:47;4.22;;;3.92;;
9938;SDS011;5008;50.656;7.188;2023-06-10T14:50:14;4.47;;;4.07;;
9938;SDS011;5008;50.656;7.188;2023-06-10T14:52:41;4.25;;;3.90;;
9938;SDS011;5008;50.656;7.188;2023-06-10T14:55:08;5.10;;;4.10;;
9938;SDS011;5008;50.656;7.188;2023-06-10T14:57:35;4.15;;;3.78;;
9938;SDS011;5008;50.656;7.188;2023-06-10T15:00:02;4.38;;;3.90;;
9938;SDS011;5008;50.656;7.188;2023-06-10T15:02:29;4.47;;;4.18;;
9938;SDS011;5008;50.656;7.188;2023-06-10T15:04:57;3.97;;;3.67;;
9938;SDS011;5008;50.656;7.188;2023-06-10T15:07:24;4.22;;;3.92;;
9938;SDS011;5008;50.656;7.188;2023-06-10T15:09:51;4.15;;;3.85;;
9938;SDS011;5008;50.656;7.188;2023-06-10T15:12:18;4.22;;;3.92;;
9938;SDS011;5008;50.656;7.188;2023-06-10T15:14:45;4.55;;;4.20;;
9938;SDS011;5008;50.656;7.188;2023-06-10T15:17:11;4.35;;;4.05;;
9938;SDS011;5008;50.656;7.188;2023-06-10T15:19:38;4.55;;;4.15;;
9938;SDS011;5008;50.656;7.188;2023-06-10T15:22:07;3.85;;;3.65;;
9938;SDS011;5008;50.656;7.188;2023-06-10T15:24:34;4.90;;;4.50;;
9938;SDS011;5008;50.656;7.188;2023-06-10T15:27:01;4.50;;;4.10;;
9938;SDS011;5008;50.656;7.188;2023-06-10T15:29:27;5.10;;;4.60;;
9938;SDS011;5008;50.656;7.188;2023-06-10T15:31:54;4.70;;;4.30;;
9938;SDS011;5008;50.656;7.188;2023-06-10T15:34:21;4.38;;;3.97;;
9938;SDS011;5008;50.656;7.188;2023-06-10T15:36:48;4.25;;;3.95;;
9938;SDS011;5008;50.656;7.188;2023-06-10T15:39:16;4.53;;;4.22;;
9938;SDS011;5008;50.656;7.188;2023-06-10T15:41:43;4.47;;;4.18;;
9938;SDS011;5008;50.656;7.188;2023-06-10T15:44:10;4.63;;;3.65;;
9938;SDS011;5008;50.656;7.188;2023-06-10T15:46:37;4.78;;;3.92;;
9938;SDS011;5008;50.656;7.188;2023-06-10T15:49:04;4.45;;;4.07;;
9938;SDS011;5008;50.656;7.188;2023-06-10T15:51:31;4.70;;;4.30;;
9938;SDS011;5008;50.656;7.188;2023-06-10T15:53:58;4.57;;;4.18;;
9938;SDS011;5008;50.656;7.188;2023-06-10T15:56:26;4.75;;;4.28;;
9938;SDS011;5008;50.656;7.188;2023-06-10T15:58:53;4.15;;;3.85;;
9938;SDS011;5008;50.656;7.188;2023-06-10T16:01:19;4.20;;;3.90;;
9938;SDS011;5008;50.656;7.188;2023-06-10T16:03:46;4.57;;;4.20;;
9938;SDS011;5008;50.656;7.188;2023-06-10T16:06:13;4.45;;;4.15;;
9938;SDS011;5008;50.656;7.188;2023-06-10T16:08:40;4.32;;;4.03;;
9938;SDS011;5008;50.656;7.188;2023-06-10T16:11:07;3.92;;;3.63;;
9938;SDS011;5008;50.656;7.188;2023-06-10T16:13:36;4.10;;;3.80;;
9938;SDS011;5008;50.656;7.188;2023-06-10T16:16:06;4.43;;;4.03;;
9938;SDS011;5008;50.656;7.188;2023-06-10T16:18:33;3.72;;;3.50;;
9938;SDS011;5008;50.656;7.188;2023-06-10T16:20:59;4.47;;;4.13;;
9938;SDS011;5008;50.656;7.188;2023-06-10T16:23:26;4.05;;;3.67;;
9938;SDS011;5008;50.656;7.188;2023-06-10T16:25:53;3.95;;;3.67;;
9938;SDS011;5008;50.656;7.188;2023-06-10T16:28:20;4.78;;;4.38;;
9938;SDS011;5008;50.656;7.188;2023-06-10T16:30:48;4.35;;;4.05;;
9938;SDS011;5008;50.656;7.188;2023-06-10T16:33:15;4.35;;;4.05;;
9938;SDS011;5008;50.656;7.188;2023-06-10T16:35:42;3.97;;;3.78;;
9938;SDS011;5008;50.656;7.188;2023-06-10T16:38:09;4.45;;;4.15;;
9938;SDS011;5008;50.656;7.188;2023-06-10T16:40:36;4.75;;;4.40;;
9938;SDS011;5008;50.656;7.188;2023-06-10T16:43:03;4.05;;;3.75;;
9938;SDS011;5008;50.656;7.188;2023-06-10T16:45:29;3.75;;;3.55;;
9938;SDS011;5008;50.656;7.188;2023-06-10T16:47:58;4.03;;;3.72;;
9938;SDS011;5008;50.656;7.188;2023-06-10T16:50:24;3.97;;;3.67;;
9938;SDS011;5008;50.656;7.188;2023-06-10T16:52:51;3.45;;;3.25;;
9938;SDS011;5008;50.656;7.188;2023-06-10T16:57:59;5.72;;;3.72;;
9938;SDS011;5008;50.656;7.188;2023-06-10T17:00:25;4.97;;;4.32;;
9938;SDS011;5008;50.656;7.188;2023-06-10T17:02:52;4.15;;;3.85;;
9938;SDS011;5008;50.656;7.188;2023-06-10T17:05:20;4.22;;;3.83;;
9938;SDS011;5008;50.656;7.188;2023-06-10T17:07:47;4.00;;;3.75;;
9938;SDS011;5008;50.656;7.188;2023-06-10T17:10:14;4.13;;;3.83;;
9938;SDS011;5008;50.656;7.188;2023-06-10T17:12:41;4.50;;;4.20;;
9938;SDS011;5008;50.656;7.188;2023-06-10T17:15:08;4.00;;;3.70;;
9938;SDS011;5008;50.656;7.188;2023-06-10T17:17:35;5.20;;;3.80;;
9938;SDS011;5008;50.656;7.188;2023-06-10T17:20:02;4.15;;;3.85;;
9938;SDS011;5008;50.656;7.188;2023-06-10T17:22:31;5.05;;;4.50;;
9938;SDS011;5008;50.656;7.188;2023-06-10T17:24:58;3.92;;;3.63;;
9938;SDS011;5008;50.656;7.188;2023-06-10T17:27:25;3.90;;;3.60;;
9938;SDS011;5008;50.656;7.188;2023-06-10T17:29:51;4.35;;;4.05;;
9938;SDS011;5008;50.656;7.188;2023-06-10T17:32:19;5.20;;;4.35;;
9938;SDS011;5008;50.656;7.188;2023-06-10T17:34:45;4.20;;;3.90;;
9938;SDS011;5008;50.656;7.188;2023-06-10T17:37:12;4.78;;;4.47;;
9938;SDS011;5008;50.656;7.188;2023-06-10T17:39:40;4.63;;;4.22;;
9938;SDS011;5008;50.656;7.188;2023-06-10T17:42:07;5.00;;;3.90;;
9938;SDS011;5008;50.656;7.188;2023-06-10T17:44:34;4.18;;;3.88;;
9938;SDS011;5008;50.656;7.188;2023-06-10T17:47:01;4.00;;;3.60;;
9938;SDS011;5008;50.656;7.188;2023-06-10T17:49:28;6.13;;;4.03;;
9938;SDS011;5008;50.656;7.188;2023-06-10T17:51:55;4.88;;;4.47;;
9938;SDS011;5008;50.656;7.188;2023-06-10T17:54:22;7.18;;;4.07;;
9938;SDS011;5008;50.656;7.188;2023-06-10T17:56:50;4.70;;;4.35;;
9938;SDS011;5008;50.656;7.188;2023-06-10T17:59:17;4.82;;;4.50;;
9938;SDS011;5008;50.656;7.188;2023-06-10T18:01:43;4.60;;;4.20;;
9938;SDS011;5008;50.656;7.188;2023-06-10T18:04:10;6.30;;;4.93;;
9938;SDS011;5008;50.656;7.188;2023-06-10T18:06:37;5.60;;;5.10;;
9938;SDS011;5008;50.656;7.188;2023-06-10T18:09:04;6.75;;;6.25;;
9938;SDS011;5008;50.656;7.188;2023-06-10T18:11:31;6.10;;;5.60;;
9938;SDS011;5008;50.656;7.188;2023-06-10T18:13:59;5.32;;;4.85;;
9938;SDS011;5008;50.656;7.188;2023-06-10T18:19:28;5.05;;;4.60;;
9938;SDS011;5008;50.656;7.188;2023-06-10T18:21:56;4.45;;;4.05;;
9938;SDS011;5008;50.656;7.188;2023-06-10T18:24:23;4.70;;;4.30;;
9938;SDS011;5008;50.656;7.188;2023-06-10T18:26:50;5.05;;;4.40;;
9938;SDS011;5008;50.656;7.188;2023-06-10T18:29:20;5.28;;;4.50;;
9938;SDS011;5008;50.656;7.188;2023-06-10T18:31:48;5.10;;;4.45;;
9938;SDS011;5008;50.656;7.188;2023-06-10T18:34:15;5.38;;;4.97;;
9938;SDS011;5008;50.656;7.188;2023-06-10T18:36:50;5.18;;;4.78;;
9938;SDS011;5008;50.656;7.188;2023-06-10T18:39:23;4.43;;;4.10;;
9938;SDS011;5008;50.656;7.188;2023-06-10T18:41:50;6.68;;;4.85;;
9938;SDS011;5008;50.656;7.188;2023-06-10T18:44:17;6.68;;;5.75;;
9938;SDS011;5008;50.656;7.188;2023-06-10T18:46:47;5.95;;;5.53;;
9938;SDS011;5008;50.656;7.188;2023-06-10T18:49:14;5.40;;;5.00;;
9938;SDS011;5008;50.656;7.188;2023-06-10T18:51:41;5.97;;;5.45;;
9938;SDS011;5008;50.656;7.188;2023-06-10T18:54:08;6.57;;;5.90;;
9938;SDS011;5008;50.656;7.188;2023-06-10T18:56:46;6.00;;;5.60;;
9938;SDS011;5008;50.656;7.188;2023-06-10T18:59:13;6.40;;;5.90;;
9938;SDS011;5008;50.656;7.188;2023-06-10T19:01:40;6.53;;;5.93;;
9938;SDS011;5008;50.656;7.188;2023-06-10T19:04:08;8.55;;;6.50;;
9938;SDS011;5008;50.656;7.188;2023-06-10T19:06:35;6.63;;;6.03;;
9938;SDS011;5008;50.656;7.188;2023-06-10T19:09:04;7.47;;;6.30;;
9938;SDS011;5008;50.656;7.188;2023-06-10T19:11:30;7.32;;;6.30;;
9938;SDS011;5008;50.656;7.188;2023-06-10T19:13:58;6.40;;;5.90;;
9938;SDS011;5008;50.656;7.188;2023-06-10T19:16:24;7.20;;;5.75;;
9938;SDS011;5008;50.656;7.188;2023-06-10T19:18:51;6.20;;;5.70;;
9938;SDS011;5008;50.656;7.188;2023-06-10T19:21:20;6.57;;;5.97;;
9938;SDS011;5008;50.656;7.188;2023-06-10T19:23:53;6.53;;;6.03;;
9938;SDS011;5008;50.656;7.188;2023-06-10T19:26:20;7.90;;;7.10;;
9938;SDS011;5008;50.656;7.188;2023-06-10T19:28:47;8.65;;;7.85;;
9938;SDS011;5008;50.656;7.188;2023-06-10T19:31:14;7.32;;;6.72;;